Terminal Aerodrome Forecast
Issued by NWS

Home | Current Version | Previous Version | Text Only | Print | Product List | Glossary On
Versions: 1 2 3 4 5 6 7 8 9 10 11 12 13 14 15 16 17 18 19 20 21 22 23 24 25 26 27 28 29 30
000
FTUS41 KBUF 020246 AAA
TAFJHW
TAF AMD
KJHW 020246Z 0203/0224 25004KT 5SM BR SKC
     FM020400 VRB03KT 2SM BR SCT003
     FM020600 VRB03KT 1/4SM FG BKN002
     FM021400 25006KT P6SM SCT007
     FM021700 30008KT P6SM SCT035
      AMD LTD TO CLD VIS AND WIND=

USA.gov is the U.S. government's official web portal to all federal, state and local government web resources and services.